createdAt,value
2019-02-06T00:00:26.579Z,1012.84
2019-02-06T00:01:22.239Z,1012.83
2019-02-06T00:02:22.244Z,1012.84
2019-02-06T00:03:22.250Z,1012.80
2019-02-06T00:04:22.255Z,1012.79
2019-02-06T00:05:22.261Z,1012.80
2019-02-06T00:06:22.278Z,1012.81
2019-02-06T00:07:22.273Z,1012.76
2019-02-06T00:08:22.277Z,1012.74
2019-02-06T00:09:22.282Z,1012.73
2019-02-06T00:10:22.288Z,1012.77
2019-02-06T00:11:22.294Z,1012.76
2019-02-06T00:12:22.320Z,1012.79
2019-02-06T00:13:22.306Z,1012.78
2019-02-06T00:14:22.349Z,1012.79
2019-02-06T00:15:22.319Z,1012.76
2019-02-06T00:16:22.346Z,1012.78
2019-02-06T00:17:22.346Z,1012.76
2019-02-06T00:18:22.351Z,1012.79
2019-02-06T00:19:22.351Z,1012.83
2019-02-06T00:20:22.344Z,1012.78
2019-02-06T00:21:22.349Z,1012.77
2019-02-06T00:22:22.360Z,1012.73
2019-02-06T00:23:22.360Z,1012.75
2019-02-06T00:24:22.365Z,1012.75
2019-02-06T00:25:22.371Z,1012.77
2019-02-06T00:26:22.376Z,1012.68
2019-02-06T00:27:22.382Z,1012.71
2019-02-06T00:28:22.387Z,1012.68
2019-02-06T00:29:22.392Z,1012.66
2019-02-06T00:30:22.398Z,1012.67
2019-02-06T00:31:22.403Z,1012.67
2019-02-06T00:32:22.409Z,1012.66
2019-02-06T00:33:22.416Z,1012.63
2019-02-06T00:34:22.421Z,1012.61
2019-02-06T00:35:25.901Z,1012.59
2019-02-06T00:36:22.436Z,1012.58
2019-02-06T00:37:22.435Z,1012.62
2019-02-06T00:38:22.534Z,1012.57
2019-02-06T00:39:22.451Z,1012.59
2019-02-06T00:40:22.451Z,1012.60
2019-02-06T00:41:22.459Z,1012.60
2019-02-06T00:42:22.463Z,1012.60
2019-02-06T00:43:22.469Z,1012.61
2019-02-06T00:44:22.473Z,1012.60
2019-02-06T00:45:22.481Z,1012.57
2019-02-06T00:46:22.485Z,1012.62
2019-02-06T00:47:22.491Z,1012.63
2019-02-06T00:48:22.494Z,1012.56
2019-02-06T00:49:22.501Z,1012.63
2019-02-06T00:50:22.506Z,1012.58
2019-02-06T00:51:22.510Z,1012.60
2019-02-06T00:52:22.518Z,1012.60
2019-02-06T00:53:22.607Z,1012.61
2019-02-06T00:54:22.527Z,1012.62
2019-02-06T00:55:22.534Z,1012.67
2019-02-06T00:56:22.539Z,1012.64
2019-02-06T00:57:22.544Z,1012.64
2019-02-06T00:58:22.551Z,1012.70
2019-02-06T00:59:22.567Z,1012.64
2019-02-06T01:00:22.561Z,1012.61
2019-02-06T01:01:22.567Z,1012.66
2019-02-06T01:02:22.573Z,1012.69
2019-02-06T01:03:22.577Z,1012.67
2019-02-06T01:04:22.583Z,1012.63
2019-02-06T01:05:22.588Z,1012.64
2019-02-06T01:06:22.597Z,1012.60
2019-02-06T01:07:22.600Z,1012.63
2019-02-06T01:08:22.605Z,1012.55
2019-02-06T01:09:22.766Z,1012.61
2019-02-06T01:10:22.656Z,1012.62
2019-02-06T01:11:22.620Z,1012.59
2019-02-06T01:12:22.630Z,1012.56
2019-02-06T01:13:22.635Z,1012.57
2019-02-06T01:14:22.639Z,1012.58
2019-02-06T01:15:22.642Z,1012.55
2019-02-06T01:16:22.650Z,1012.51
2019-02-06T01:17:22.654Z,1012.52
2019-02-06T01:18:22.661Z,1012.47
2019-02-06T01:19:22.665Z,1012.49
2019-02-06T01:20:22.669Z,1012.51
2019-02-06T01:21:22.676Z,1012.46
2019-02-06T01:22:22.682Z,1012.47
2019-02-06T01:23:22.688Z,1012.43
2019-02-06T01:24:22.691Z,1012.47
2019-02-06T01:25:22.698Z,1012.45
2019-02-06T01:26:22.706Z,1012.48
2019-02-06T01:27:22.709Z,1012.43
2019-02-06T01:28:22.715Z,1012.41
2019-02-06T01:29:22.718Z,1012.39
2019-02-06T01:30:22.724Z,1012.42
2019-02-06T01:31:22.732Z,1012.38
2019-02-06T01:32:22.735Z,1012.39
2019-02-06T01:33:22.741Z,1012.41
2019-02-06T01:34:22.748Z,1012.38
2019-02-06T01:35:22.750Z,1012.39
2019-02-06T01:36:22.756Z,1012.37
2019-02-06T01:37:22.764Z,1012.38
2019-02-06T01:38:22.770Z,1012.32
2019-02-06T01:39:22.773Z,1012.34
2019-02-06T01:40:22.931Z,1012.36
2019-02-06T01:41:22.786Z,1012.34
2019-02-06T01:42:22.792Z,1012.31
2019-02-06T01:43:22.795Z,1012.32
2019-02-06T01:44:22.801Z,1012.30
2019-02-06T01:45:22.806Z,1012.34
2019-02-06T01:46:22.813Z,1012.31
2019-02-06T01:47:22.816Z,1012.31
2019-02-06T01:48:22.823Z,1012.29
2019-02-06T01:49:22.828Z,1012.29
2019-02-06T01:50:22.833Z,1012.31
2019-02-06T01:51:22.837Z,1012.30
2019-02-06T01:52:22.842Z,1012.32
2019-02-06T01:53:22.849Z,1012.29
2019-02-06T01:54:22.857Z,1012.30
2019-02-06T01:55:22.862Z,1012.28
2019-02-06T01:56:22.864Z,1012.30
2019-02-06T01:57:22.872Z,1012.29
2019-02-06T01:58:22.878Z,1012.26
2019-02-06T01:59:22.890Z,1012.29
2019-02-06T02:00:22.888Z,1012.30
2019-02-06T02:01:22.893Z,1012.29
2019-02-06T02:02:22.898Z,1012.27
2019-02-06T02:03:22.903Z,1012.29
2019-02-06T02:04:22.911Z,1012.24
2019-02-06T02:05:22.915Z,1012.24
2019-02-06T02:06:22.921Z,1012.23
2019-02-06T02:07:22.925Z,1012.25
2019-02-06T02:08:22.933Z,1012.22
2019-02-06T02:09:22.937Z,1012.19
2019-02-06T02:10:22.941Z,1012.23
2019-02-06T02:11:22.946Z,1012.24
2019-02-06T02:12:22.952Z,1012.23
2019-02-06T02:13:22.957Z,1012.22
2019-02-06T02:14:22.965Z,1012.22
2019-02-06T02:15:22.968Z,1012.18
2019-02-06T02:16:22.973Z,1012.18
2019-02-06T02:17:22.979Z,1012.15
2019-02-06T02:18:22.984Z,1012.18
2019-02-06T02:19:22.990Z,1012.19
2019-02-06T02:20:22.996Z,1012.17
2019-02-06T02:21:23.002Z,1012.18
2019-02-06T02:22:23.006Z,1012.16
2019-02-06T02:23:23.012Z,1012.19
2019-02-06T02:24:23.017Z,1012.20
2019-02-06T02:25:23.025Z,1012.13
2019-02-06T02:26:23.029Z,1012.14
2019-02-06T02:27:23.033Z,1012.06
2019-02-06T02:28:23.044Z,1012.13
2019-02-06T02:29:23.063Z,1012.06
2019-02-06T02:30:23.184Z,1012.08
2019-02-06T02:31:23.055Z,1012.10
2019-02-06T02:32:23.062Z,1012.01
2019-02-06T02:33:23.068Z,1012.03
2019-02-06T02:34:23.075Z,1012.07
2019-02-06T02:35:23.111Z,1012.10
2019-02-06T02:36:23.083Z,1012.10
2019-02-06T02:37:23.089Z,1012.06
2019-02-06T02:38:23.092Z,1012.02
2019-02-06T02:39:23.119Z,1012.04
2019-02-06T02:40:23.117Z,1012.02
2019-02-06T02:41:23.108Z,1012.03
2019-02-06T02:42:23.115Z,1011.99
2019-02-06T02:43:23.121Z,1012.01
2019-02-06T02:44:23.125Z,1012.02
2019-02-06T02:45:23.132Z,1011.99
2019-02-06T02:46:23.140Z,1012.01
2019-02-06T02:47:23.143Z,1011.96
2019-02-06T02:48:23.149Z,1012.00
2019-02-06T02:49:23.154Z,1011.99
2019-02-06T02:50:23.160Z,1012.01
2019-02-06T02:51:23.164Z,1012.00
2019-02-06T02:52:23.168Z,1011.97
2019-02-06T02:53:23.175Z,1012.04
2019-02-06T02:54:23.181Z,1012.03
2019-02-06T02:55:23.185Z,1012.04
2019-02-06T02:56:23.191Z,1012.03
2019-02-06T02:57:23.197Z,1012.04
2019-02-06T02:58:23.203Z,1012.06
2019-02-06T02:59:23.206Z,1012.02
2019-02-06T03:00:23.214Z,1012.01
2019-02-06T03:01:23.217Z,1012.00
2019-02-06T03:02:23.223Z,1012.02
2019-02-06T03:03:23.229Z,1012.03
2019-02-06T03:04:23.236Z,1012.03
2019-02-06T03:05:23.239Z,1012.01
2019-02-06T03:06:28.152Z,1011.97
2019-02-06T03:07:23.251Z,1011.92
2019-02-06T03:08:23.255Z,1011.96
2019-02-06T03:09:23.262Z,1011.88
2019-02-06T03:10:23.268Z,1011.94
2019-02-06T03:11:23.274Z,1011.89
2019-02-06T03:12:23.294Z,1011.89
2019-02-06T03:13:23.285Z,1011.91
2019-02-06T03:14:23.288Z,1011.90
2019-02-06T03:15:23.398Z,1011.88
2019-02-06T03:16:23.446Z,1011.88
2019-02-06T03:17:23.310Z,1011.87
2019-02-06T03:18:23.313Z,1011.87
2019-02-06T03:19:23.317Z,1011.91
2019-02-06T03:20:23.321Z,1011.88
2019-02-06T03:21:23.327Z,1011.90
2019-02-06T03:22:23.334Z,1011.88
2019-02-06T03:23:23.353Z,1011.93
2019-02-06T03:24:23.342Z,1011.92
2019-02-06T03:25:23.349Z,1011.91
2019-02-06T03:26:23.362Z,1011.91
2019-02-06T03:27:23.365Z,1011.89
2019-02-06T03:28:23.373Z,1011.89
2019-02-06T03:29:23.371Z,1011.88
2019-02-06T03:30:23.379Z,1011.93
2019-02-06T03:31:23.382Z,1011.92
2019-02-06T03:32:23.392Z,1011.94
2019-02-06T03:33:23.394Z,1011.91
2019-02-06T03:34:23.401Z,1011.91
2019-02-06T03:35:23.401Z,1011.88
2019-02-06T03:36:23.407Z,1011.92
2019-02-06T03:37:23.414Z,1011.89
2019-02-06T03:38:23.420Z,1011.87
2019-02-06T03:39:23.424Z,1011.88
2019-02-06T03:40:23.429Z,1011.94
2019-02-06T03:41:23.436Z,1011.97
2019-02-06T03:42:23.442Z,1011.92
2019-02-06T03:43:23.446Z,1011.92
2019-02-06T03:44:23.451Z,1011.93
2019-02-06T03:45:23.468Z,1011.91
2019-02-06T03:46:23.464Z,1011.93
2019-02-06T03:47:23.468Z,1011.91
2019-02-06T03:48:23.475Z,1011.93
2019-02-06T03:49:23.481Z,1011.90
2019-02-06T03:50:23.483Z,1011.92
2019-02-06T03:51:23.490Z,1011.91
2019-02-06T03:52:23.494Z,1011.91
2019-02-06T03:53:23.501Z,1011.93
2019-02-06T03:54:23.506Z,1011.92
2019-02-06T03:55:23.511Z,1011.94
2019-02-06T03:56:23.520Z,1011.96
2019-02-06T03:57:23.522Z,1011.91
2019-02-06T03:58:23.527Z,1011.96
2019-02-06T03:59:23.533Z,1011.95
2019-02-06T04:00:23.538Z,1011.95
2019-02-06T04:01:23.546Z,1011.90
2019-02-06T04:02:23.555Z,1011.90
2019-02-06T04:03:23.553Z,1011.91
2019-02-06T04:04:23.560Z,1011.88
2019-02-06T04:05:23.566Z,1011.92
2019-02-06T04:06:23.572Z,1011.89
2019-02-06T04:07:23.576Z,1011.86
2019-02-06T04:08:23.582Z,1011.88
2019-02-06T04:09:23.589Z,1011.89
2019-02-06T04:10:23.594Z,1011.89
2019-02-06T04:11:23.597Z,1011.92
2019-02-06T04:12:23.607Z,1011.90
2019-02-06T04:13:23.610Z,1011.93
2019-02-06T04:14:23.618Z,1011.94
2019-02-06T04:15:23.620Z,1011.89
2019-02-06T04:16:23.625Z,1011.91
2019-02-06T04:17:23.631Z,1011.93
2019-02-06T04:18:23.647Z,1011.95
2019-02-06T04:19:23.642Z,1011.90
2019-02-06T04:20:23.648Z,1011.92
2019-02-06T04:21:23.652Z,1011.89
2019-02-06T04:22:23.663Z,1011.88
2019-02-06T04:23:23.662Z,1011.89
2019-02-06T04:24:23.669Z,1011.90
2019-02-06T04:25:23.675Z,1011.87
2019-02-06T04:26:23.680Z,1011.87
2019-02-06T04:27:23.685Z,1011.88
2019-02-06T04:28:23.690Z,1011.89
2019-02-06T04:29:23.696Z,1011.91
2019-02-06T04:30:23.704Z,1011.89
2019-02-06T04:31:23.706Z,1011.89
2019-02-06T04:32:23.753Z,1011.92
2019-02-06T04:33:23.718Z,1011.90
2019-02-06T04:34:23.729Z,1011.94
2019-02-06T04:35:23.730Z,1011.93
2019-02-06T04:36:23.735Z,1011.92
2019-02-06T04:37:23.739Z,1011.95
2019-02-06T04:38:23.747Z,1011.93
2019-02-06T04:39:23.750Z,1011.93
2019-02-06T04:40:23.756Z,1011.99
2019-02-06T04:41:23.765Z,1011.93
2019-02-06T04:42:23.767Z,1011.93
2019-02-06T04:43:23.773Z,1011.98
2019-02-06T04:44:23.780Z,1011.93
2019-02-06T04:45:23.784Z,1011.95
2019-02-06T04:46:23.791Z,1011.98
2019-02-06T04:47:23.793Z,1011.98
2019-02-06T04:48:23.801Z,1011.97
2019-02-06T04:49:23.804Z,1011.97
2019-02-06T04:50:23.811Z,1011.96
2019-02-06T04:51:23.816Z,1011.95
2019-02-06T04:52:23.826Z,1011.93
2019-02-06T04:53:23.827Z,1011.89
2019-02-06T04:54:23.833Z,1011.93
2019-02-06T04:55:23.838Z,1011.92
2019-02-06T04:56:23.958Z,1011.93
2019-02-06T04:57:23.864Z,1011.94
2019-02-06T04:58:23.856Z,1011.97
2019-02-06T04:59:23.859Z,1011.97
2019-02-06T05:00:23.865Z,1011.91
2019-02-06T05:01:23.872Z,1011.92
2019-02-06T05:02:23.875Z,1011.91
2019-02-06T05:03:25.904Z,1011.96
2019-02-06T05:04:23.887Z,1011.95
2019-02-06T05:05:23.905Z,1011.96
2019-02-06T05:06:23.898Z,1011.96
2019-02-06T05:07:23.903Z,1011.94
2019-02-06T05:08:23.911Z,1011.96
2019-02-06T05:09:23.914Z,1011.95
2019-02-06T05:10:23.919Z,1011.94
2019-02-06T05:11:23.923Z,1012.00
2019-02-06T05:12:23.933Z,1011.98
2019-02-06T05:13:23.936Z,1012.03
2019-02-06T05:14:23.941Z,1012.00
2019-02-06T05:15:23.945Z,1012.01
2019-02-06T05:16:23.952Z,1011.97
2019-02-06T05:17:23.957Z,1011.99
2019-02-06T05:18:23.962Z,1012.00
2019-02-06T05:19:23.967Z,1012.03
2019-02-06T05:20:23.976Z,1012.04
2019-02-06T05:21:23.993Z,1012.03
2019-02-06T05:22:23.986Z,1012.06
2019-02-06T05:23:23.991Z,1012.06
2019-02-06T05:24:23.995Z,1012.04
2019-02-06T05:25:24.002Z,1012.08
2019-02-06T05:26:24.012Z,1012.13
2019-02-06T05:27:24.011Z,1012.07
2019-02-06T05:28:24.016Z,1012.14
2019-02-06T05:29:24.022Z,1012.13
2019-02-06T05:30:24.029Z,1012.15
2019-02-06T05:31:24.035Z,1012.18
2019-02-06T05:32:24.040Z,1012.18
2019-02-06T05:33:24.044Z,1012.19
2019-02-06T05:34:24.051Z,1012.22
2019-02-06T05:35:24.055Z,1012.28
2019-02-06T05:36:24.060Z,1012.31
2019-02-06T05:37:32.233Z,1012.31
2019-02-06T05:38:24.072Z,1012.30
2019-02-06T05:39:24.079Z,1012.36
2019-02-06T05:40:24.082Z,1012.34
2019-02-06T05:41:24.090Z,1012.40
2019-02-06T05:42:24.095Z,1012.40
2019-02-06T05:43:24.099Z,1012.40
2019-02-06T05:44:24.104Z,1012.44
2019-02-06T05:45:24.111Z,1012.41
2019-02-06T05:46:24.116Z,1012.46
2019-02-06T05:47:24.121Z,1012.49
2019-02-06T05:48:24.125Z,1012.52
2019-02-06T05:49:24.131Z,1012.47
2019-02-06T05:50:24.140Z,1012.55
2019-02-06T05:51:24.142Z,1012.52
2019-02-06T05:52:24.148Z,1012.53
2019-02-06T05:53:24.157Z,1012.57
2019-02-06T05:54:24.159Z,1012.57
2019-02-06T05:55:24.164Z,1012.56
2019-02-06T05:56:24.169Z,1012.62
2019-02-06T05:57:24.176Z,1012.60
2019-02-06T05:58:24.194Z,1012.65
2019-02-06T05:59:24.187Z,1012.70
2019-02-06T06:00:24.192Z,1012.69
2019-02-06T06:01:24.197Z,1012.67
2019-02-06T06:02:24.204Z,1012.73
2019-02-06T06:03:24.208Z,1012.71
2019-02-06T06:04:24.213Z,1012.76
2019-02-06T06:05:24.221Z,1012.81
2019-02-06T06:06:24.224Z,1012.76
2019-02-06T06:07:24.363Z,1012.81
2019-02-06T06:08:24.237Z,1012.87
2019-02-06T06:09:24.246Z,1012.91
2019-02-06T06:10:24.248Z,1012.90
2019-02-06T06:11:24.252Z,1012.98
2019-02-06T06:12:24.261Z,1012.97
2019-02-06T06:13:24.264Z,1013.01
2019-02-06T06:14:24.271Z,1012.98
2019-02-06T06:15:24.286Z,1013.01
2019-02-06T06:16:24.282Z,1012.97
2019-02-06T06:17:24.286Z,1013.00
2019-02-06T06:18:24.291Z,1013.02
2019-02-06T06:19:24.295Z,1013.06
2019-02-06T06:20:24.302Z,1013.10
2019-02-06T06:21:24.308Z,1013.08
2019-02-06T06:22:24.314Z,1013.15
2019-02-06T06:23:24.318Z,1013.12
2019-02-06T06:24:24.324Z,1013.14
2019-02-06T06:25:24.331Z,1013.17
2019-02-06T06:26:24.334Z,1013.15
2019-02-06T06:27:24.340Z,1013.19
2019-02-06T06:28:24.346Z,1013.19
2019-02-06T06:29:24.351Z,1013.17
2019-02-06T06:30:24.359Z,1013.24
2019-02-06T06:31:24.362Z,1013.27
2019-02-06T06:32:24.368Z,1013.29
2019-02-06T06:33:24.384Z,1013.31
2019-02-06T06:34:24.379Z,1013.35
2019-02-06T06:35:24.383Z,1013.33
2019-02-06T06:36:24.392Z,1013.35
2019-02-06T06:37:24.399Z,1013.35
2019-02-06T06:38:24.401Z,1013.35
2019-02-06T06:39:24.406Z,1013.37
2019-02-06T06:40:24.412Z,1013.35
2019-02-06T06:41:24.418Z,1013.42
2019-02-06T06:42:24.439Z,1013.46
2019-02-06T06:43:24.433Z,1013.40
2019-02-06T06:44:24.434Z,1013.43
2019-02-06T06:45:24.439Z,1013.45
2019-02-06T06:46:24.446Z,1013.50
2019-02-06T06:47:24.452Z,1013.53
2019-02-06T06:48:24.454Z,1013.48
2019-02-06T06:49:24.460Z,1013.59
2019-02-06T06:50:24.469Z,1013.61
2019-02-06T06:51:24.474Z,1013.66
2019-02-06T06:52:24.486Z,1013.66
2019-02-06T06:53:24.504Z,1013.66
2019-02-06T06:54:24.490Z,1013.69
2019-02-06T06:55:24.493Z,1013.63
2019-02-06T06:56:24.498Z,1013.69
2019-02-06T06:57:24.504Z,1013.67
2019-02-06T06:58:24.515Z,1013.71
2019-02-06T06:59:24.553Z,1013.72
2019-02-06T07:00:24.531Z,1013.77
2019-02-06T07:01:24.554Z,1013.85
2019-02-06T07:02:24.532Z,1013.80
2019-02-06T07:03:24.537Z,1013.87
2019-02-06T07:04:24.546Z,1013.86
2019-02-06T07:05:24.548Z,1013.90
2019-02-06T07:06:24.554Z,1013.95
2019-02-06T07:07:24.559Z,1013.93
2019-02-06T07:08:24.565Z,1013.98
2019-02-06T07:09:24.571Z,1013.97
2019-02-06T07:10:24.577Z,1013.98
2019-02-06T07:11:24.581Z,1014.02
2019-02-06T07:12:24.586Z,1014.05
2019-02-06T07:13:24.596Z,1014.04
2019-02-06T07:14:24.599Z,1014.08
2019-02-06T07:15:24.604Z,1014.03
2019-02-06T07:16:24.609Z,1014.07
2019-02-06T07:17:24.614Z,1014.07
2019-02-06T07:18:24.621Z,1014.16
2019-02-06T07:19:24.632Z,1014.16
2019-02-06T07:20:24.630Z,1014.18
2019-02-06T07:21:24.640Z,1014.18
2019-02-06T07:22:24.643Z,1014.32
2019-02-06T07:23:24.646Z,1014.29
2019-02-06T07:24:24.652Z,1014.32
2019-02-06T07:25:24.659Z,1014.31
2019-02-06T07:26:24.664Z,1014.35
2019-02-06T07:27:24.670Z,1014.28
2019-02-06T07:28:24.675Z,1014.31
2019-02-06T07:29:24.681Z,1014.36
2019-02-06T07:30:24.759Z,1014.34
2019-02-06T07:31:24.690Z,1014.33
2019-02-06T07:32:24.697Z,1014.36
2019-02-06T07:33:24.705Z,1014.38
2019-02-06T07:34:24.711Z,1014.44
2019-02-06T07:35:24.714Z,1014.48
2019-02-06T07:36:24.718Z,1014.51
2019-02-06T07:37:24.727Z,1014.53
2019-02-06T07:38:24.731Z,1014.53
2019-02-06T07:39:24.736Z,1014.56
2019-02-06T07:40:24.740Z,1014.56
2019-02-06T07:41:24.747Z,1014.61
2019-02-06T07:42:24.753Z,1014.58
2019-02-06T07:43:24.757Z,1014.67
2019-02-06T07:44:24.765Z,1014.69
2019-02-06T07:45:24.767Z,1014.68
2019-02-06T07:46:24.773Z,1014.73
2019-02-06T07:47:24.784Z,1014.72
2019-02-06T07:48:24.786Z,1014.75
2019-02-06T07:49:24.790Z,1014.79
2019-02-06T07:50:24.796Z,1014.87
2019-02-06T07:51:24.800Z,1014.89
2019-02-06T07:52:24.806Z,1014.88
2019-02-06T07:53:24.812Z,1014.87
2019-02-06T07:54:24.830Z,1014.93
2019-02-06T07:55:24.823Z,1014.91
2019-02-06T07:56:24.829Z,1014.92
2019-02-06T07:57:24.833Z,1014.91
2019-02-06T07:58:24.839Z,1014.91
2019-02-06T07:59:24.847Z,1014.91
2019-02-06T08:00:24.850Z,1014.97
2019-02-06T08:01:24.857Z,1014.96
2019-02-06T08:02:24.861Z,1014.90
2019-02-06T08:03:24.868Z,1014.95
2019-02-06T08:04:24.871Z,1014.94
2019-02-06T08:05:24.879Z,1014.96
2019-02-06T08:06:24.889Z,1014.93
2019-02-06T08:07:24.893Z,1014.97
2019-02-06T08:08:35.364Z,1014.96
2019-02-06T08:09:24.903Z,1015.06
2019-02-06T08:10:24.909Z,1015.04
2019-02-06T08:11:24.910Z,1015.06
2019-02-06T08:12:24.915Z,1015.07
2019-02-06T08:13:24.921Z,1015.06
2019-02-06T08:14:24.928Z,1015.06
2019-02-06T08:15:24.951Z,1015.11
2019-02-06T08:16:24.940Z,1015.14
2019-02-06T08:17:24.945Z,1015.13
2019-02-06T08:18:24.950Z,1015.15
2019-02-06T08:19:24.963Z,1015.23
2019-02-06T08:20:24.960Z,1015.22
2019-02-06T08:21:24.966Z,1015.28
2019-02-06T08:22:24.972Z,1015.29
2019-02-06T08:23:24.977Z,1015.32
2019-02-06T08:24:24.983Z,1015.36
2019-02-06T08:25:24.989Z,1015.38
2019-02-06T08:26:24.998Z,1015.41
2019-02-06T08:27:26.371Z,1015.37
2019-02-06T08:28:25.006Z,1015.38
2019-02-06T08:29:25.012Z,1015.39
2019-02-06T08:30:25.016Z,1015.39
2019-02-06T08:31:25.024Z,1015.42
2019-02-06T08:32:25.027Z,1015.40
2019-02-06T08:33:25.032Z,1015.49
2019-02-06T08:34:25.108Z,1015.47
2019-02-06T08:35:25.044Z,1015.49
2019-02-06T08:36:25.048Z,1015.46
2019-02-06T08:37:25.056Z,1015.53
2019-02-06T08:38:25.062Z,1015.55
2019-02-06T08:39:25.066Z,1015.58
2019-02-06T08:40:25.071Z,1015.56
2019-02-06T08:41:25.077Z,1015.61
2019-02-06T08:42:25.082Z,1015.62
2019-02-06T08:43:25.087Z,1015.62
2019-02-06T08:44:25.097Z,1015.68
2019-02-06T08:45:25.099Z,1015.69
2019-02-06T08:46:25.105Z,1015.68
2019-02-06T08:47:25.108Z,1015.67
2019-02-06T08:48:25.114Z,1015.76
2019-02-06T08:49:25.128Z,1015.74
2019-02-06T08:50:25.127Z,1015.78
2019-02-06T08:51:25.132Z,1015.80
2019-02-06T08:52:25.252Z,1015.80
2019-02-06T08:53:25.149Z,1015.81
2019-02-06T08:54:25.344Z,1015.80
2019-02-06T08:55:25.153Z,1015.84
2019-02-06T08:56:25.160Z,1015.85
2019-02-06T08:57:25.167Z,1015.86
2019-02-06T08:58:25.173Z,1015.87
2019-02-06T08:59:25.200Z,1015.87
2019-02-06T09:00:25.184Z,1015.92
2019-02-06T09:01:25.190Z,1015.90
2019-02-06T09:02:25.194Z,1015.90
2019-02-06T09:03:25.199Z,1015.95
2019-02-06T09:04:25.213Z,1015.97
2019-02-06T09:05:25.210Z,1015.96
2019-02-06T09:06:25.221Z,1015.99
2019-02-06T09:07:25.220Z,1015.98
2019-02-06T09:08:25.228Z,1016.00
2019-02-06T09:09:25.232Z,1016.06
2019-02-06T09:10:25.238Z,1016.07
2019-02-06T09:11:25.244Z,1016.03
2019-02-06T09:12:25.247Z,1016.05
2019-02-06T09:13:25.253Z,1016.04
2019-02-06T09:14:25.261Z,1016.09
2019-02-06T09:15:27.342Z,1016.03
2019-02-06T09:16:25.271Z,1016.09
2019-02-06T09:17:25.292Z,1016.10
2019-02-06T09:18:25.283Z,1016.10
2019-02-06T09:19:25.301Z,1016.06
2019-02-06T09:20:25.296Z,1016.06
2019-02-06T09:21:25.321Z,1016.13
2019-02-06T09:22:25.305Z,1016.09
2019-02-06T09:23:25.310Z,1016.12
2019-02-06T09:24:25.316Z,1016.14
2019-02-06T09:25:25.384Z,1016.17
2019-02-06T09:26:25.328Z,1016.20
2019-02-06T09:27:25.331Z,1016.20
2019-02-06T09:28:25.338Z,1016.22
2019-02-06T09:29:25.373Z,1016.20
2019-02-06T09:30:25.349Z,1016.27
2019-02-06T09:31:25.356Z,1016.21
2019-02-06T09:32:25.360Z,1016.26
2019-02-06T09:33:25.367Z,1016.28
2019-02-06T09:34:25.372Z,1016.30
2019-02-06T09:35:25.378Z,1016.35
2019-02-06T09:36:25.383Z,1016.36
2019-02-06T09:37:25.389Z,1016.35
2019-02-06T09:38:25.397Z,1016.38
2019-02-06T09:39:25.400Z,1016.41
2019-02-06T09:40:25.406Z,1016.46
2019-02-06T09:41:25.414Z,1016.48
2019-02-06T09:42:25.418Z,1016.52
2019-02-06T09:43:27.441Z,1016.53
2019-02-06T09:44:25.431Z,1016.50
2019-02-06T09:45:25.435Z,1016.55
2019-02-06T09:46:25.444Z,1016.52
2019-02-06T09:47:25.453Z,1016.50
2019-02-06T09:48:25.454Z,1016.55
2019-02-06T09:49:25.465Z,1016.46
2019-02-06T09:50:25.464Z,1016.51
2019-02-06T09:51:25.469Z,1016.50
2019-02-06T09:52:28.678Z,1016.55
2019-02-06T09:53:25.484Z,1016.51
2019-02-06T09:54:25.487Z,1016.55
2019-02-06T09:55:25.521Z,1016.62
2019-02-06T09:56:25.497Z,1016.65
2019-02-06T09:57:25.505Z,1016.70
2019-02-06T09:58:25.512Z,1016.70
2019-02-06T09:59:25.516Z,1016.78
2019-02-06T10:00:25.525Z,1016.77
2019-02-06T10:01:25.528Z,1016.74
2019-02-06T10:02:25.535Z,1016.76
2019-02-06T10:03:25.541Z,1016.76
2019-02-06T10:04:25.546Z,1016.80
2019-02-06T10:05:25.554Z,1016.78
2019-02-06T10:06:25.558Z,1016.78
2019-02-06T10:07:25.563Z,1016.79
2019-02-06T10:08:25.570Z,1016.82
2019-02-06T10:09:25.577Z,1016.85
2019-02-06T10:10:25.582Z,1016.84
2019-02-06T10:11:25.588Z,1016.81
2019-02-06T10:12:25.595Z,1016.84
2019-02-06T10:13:25.600Z,1016.90
2019-02-06T10:14:25.607Z,1016.93
2019-02-06T10:15:25.614Z,1016.95
2019-02-06T10:16:25.619Z,1016.98
2019-02-06T10:17:25.627Z,1016.92
2019-02-06T10:18:25.633Z,1016.98
2019-02-06T10:19:25.639Z,1016.99
2019-02-06T10:20:25.644Z,1017.03
2019-02-06T10:21:25.650Z,1017.06
2019-02-06T10:22:25.659Z,1017.08
2019-02-06T10:23:25.662Z,1017.06
2019-02-06T10:24:25.670Z,1017.06
2019-02-06T10:25:25.767Z,1017.06
2019-02-06T10:26:25.683Z,1017.07
2019-02-06T10:27:25.687Z,1017.03
2019-02-06T10:28:25.695Z,1017.06
2019-02-06T10:29:25.702Z,1017.03
2019-02-06T10:30:25.710Z,1017.10
2019-02-06T10:31:25.717Z,1017.11
2019-02-06T10:32:25.724Z,1017.11
2019-02-06T10:33:25.731Z,1017.14
2019-02-06T10:34:25.738Z,1017.20
2019-02-06T10:35:25.748Z,1017.15
2019-02-06T10:36:25.754Z,1017.15
2019-02-06T10:37:25.763Z,1017.19
2019-02-06T10:38:25.771Z,1017.14
2019-02-06T10:39:34.345Z,1017.14
2019-02-06T10:40:25.785Z,1017.14
2019-02-06T10:41:25.796Z,1017.14
2019-02-06T10:42:25.804Z,1017.13
2019-02-06T10:43:32.145Z,1017.18
2019-02-06T10:44:25.821Z,1017.22
2019-02-06T10:45:25.832Z,1017.26
2019-02-06T10:46:25.839Z,1017.20
2019-02-06T10:47:25.845Z,1017.23
2019-02-06T10:48:26.027Z,1017.26
2019-02-06T10:49:25.863Z,1017.30
2019-02-06T10:50:25.873Z,1017.32
2019-02-06T10:51:25.878Z,1017.33
2019-02-06T10:52:25.886Z,1017.33
2019-02-06T10:53:25.896Z,1017.39
2019-02-06T10:54:25.951Z,1017.35
2019-02-06T10:55:25.913Z,1017.37
2019-02-06T10:56:25.921Z,1017.36
2019-02-06T10:57:25.930Z,1017.35
2019-02-06T10:58:25.939Z,1017.39
2019-02-06T10:59:25.946Z,1017.41
2019-02-06T11:00:25.955Z,1017.42
2019-02-06T11:01:25.965Z,1017.41
2019-02-06T11:02:25.973Z,1017.46
2019-02-06T11:03:25.980Z,1017.48
2019-02-06T11:04:25.988Z,1017.49
2019-02-06T11:05:25.996Z,1017.52
2019-02-06T11:06:26.005Z,1017.57
2019-02-06T11:07:26.012Z,1017.59
2019-02-06T11:08:26.022Z,1017.63
2019-02-06T11:09:26.030Z,1017.57
2019-02-06T11:10:26.038Z,1017.66
2019-02-06T11:11:26.045Z,1017.67
2019-02-06T11:12:26.054Z,1017.65
2019-02-06T11:13:26.062Z,1017.68
2019-02-06T11:14:26.071Z,1017.68
2019-02-06T11:15:26.078Z,1017.72
2019-02-06T11:16:26.089Z,1017.80
2019-02-06T11:17:26.095Z,1017.84
2019-02-06T11:18:26.106Z,1017.82
2019-02-06T11:19:26.111Z,1017.78
2019-02-06T11:20:26.120Z,1017.73
2019-02-06T11:21:26.127Z,1017.76
2019-02-06T11:22:26.139Z,1017.79
2019-02-06T11:23:26.147Z,1017.81
2019-02-06T11:24:26.873Z,1017.85
2019-02-06T11:25:26.163Z,1017.94
2019-02-06T11:26:26.170Z,1017.95
2019-02-06T11:27:26.178Z,1018.01
2019-02-06T11:28:26.185Z,1018.11
2019-02-06T11:29:26.194Z,1018.08
2019-02-06T11:30:26.203Z,1018.08
2019-02-06T11:31:26.261Z,1018.07
2019-02-06T11:32:26.219Z,1018.01
2019-02-06T11:33:26.228Z,1017.97
2019-02-06T11:34:26.239Z,1017.97
2019-02-06T11:35:26.244Z,1017.94
2019-02-06T11:36:26.255Z,1017.98
2019-02-06T11:37:26.275Z,1018.01
2019-02-06T11:38:28.072Z,1018.06
2019-02-06T11:39:26.280Z,1018.15
2019-02-06T11:40:26.291Z,1018.18
2019-02-06T11:41:26.298Z,1018.20
2019-02-06T11:42:26.305Z,1018.19
2019-02-06T11:43:26.312Z,1018.17
2019-02-06T11:44:26.323Z,1018.15
2019-02-06T11:45:26.332Z,1018.16
2019-02-06T11:46:26.340Z,1018.13
2019-02-06T11:47:26.348Z,1018.11
2019-02-06T11:48:26.359Z,1018.11
2019-02-06T11:49:26.367Z,1018.05
2019-02-06T11:50:26.378Z,1018.09
2019-02-06T11:51:26.386Z,1018.10
2019-02-06T11:52:26.394Z,1018.03
2019-02-06T11:53:26.681Z,1017.99
2019-02-06T11:54:26.414Z,1017.97
2019-02-06T11:55:26.423Z,1017.93
2019-02-06T11:56:26.432Z,1017.89
2019-02-06T11:57:26.494Z,1017.91
2019-02-06T11:58:26.452Z,1017.96
2019-02-06T11:59:26.461Z,1017.97
2019-02-06T12:00:26.471Z,1017.83
2019-02-06T12:01:26.481Z,1017.80
2019-02-06T12:02:36.762Z,1017.83
2019-02-06T12:03:26.499Z,1017.79
2019-02-06T12:04:26.510Z,1017.72
2019-02-06T12:05:26.521Z,1017.75